Aérodrome :
LOGIN :

S'inscrire | Disclaimer

   EN    FR    IT 

 










Légende :    VFR   VFR Marginal   IFR   IFR Intensif   IFR Très Intensif
Visi : 
Plafond : 
>= 8 km
>= 3000ft
5 à 8 km
1000 à 3000 ft
1500m à 5 km
500 à 1000 ft
800 à 1500m
200 à 500 ft
< 800m
< 200 ft
Symboles :   Orages  Brouillard  Fortes neiges  Fortes précipitations  Vent > 20 kt
SIGMETs :   Divers  Orages  Givrage  Turbulence  Onde Orograph.  Cendres Volcan.







- Altitude de l'aérodrome : 405 ft
- Code IATA : ODH


EGVO - RAF Odiham

DERNIER METAR :
  • 241150Z 18010KT 8000 -DZ OVC010 13/11 Q0991 GRN TEMPO 7000 SHRA GRN

METARs EXPIRÉS :
  • 241122Z 15013KT 6000 HZ BKN009 BKN020 13/11 Q0991 GRN TEMPO 9999 NSW FEW009 BKN020 WHT
  • 241050Z 13012KT 9999 BKN011 OVC018 14/12 Q0991 GRN TEMPO 7000 SHRA GRN
  • 241041Z 12010KT 8000 -SHRA SCT011 BKN020 14/12 Q0991 GRN TEMPO FEW011 BKN020 WHT
  • 241015Z 12014KT 9999 -SHRA SCT020 BKN040 14/12 Q0991 WHT TEMPO 5000 SHRA WHT
  • 240950Z 11018KT 9999 BKN030 OVC060 16/10 Q0991 BLU TEMPO 7000 RA SCT020 WHT

TAF TAF EGVO
Valide du 24 à 12h jusqu'au 25 à 00h UTC


241040Z 2412/2424 20010KT 9999 BKN020
BECMG 2412/2415 FEW025
TEMPO 2412/2418 14016G26KT 7000 SHRA BKN010
PROB30
TEMPO 2412/2414 4000 +SHRA BKN015CB
PROB30
TEMPO 2422/2424 SCT010
Pas de NOTAMs connus pour ce terrain.



MET'MAP, la Météo Aéronautique d'un coup d'oeil ! - Copyright ORBIFLY Décembre 2007 - Disclaimer

ORBIFLY MET'MAP TEAM :

Programmation & Développement : Alexandra Zaïnal
Conception & Développement : Baudouin d'Aumeries
Co-Programmation & Développement : Marc-Olivier Méhu
Soutien technique & logistique : Manuel Goepfert

Contact : metmap@orbifly.com




SOURCES & CREDITS :

   NOAA